Terminal Aerodrome Forecast
Issued by NWS

Home | Current Version | Previous Version | Text Only | Print | Product List | Glossary On
Versions: 1 2 3 4 5 6 7 8 9 10 11 12 13
415
FTUS44 KCRP 102338
TAFALI
TAF
KALI 102338Z 1100/1124 36005KT P6SM OVC008
      TEMPO 1100/1103 4SM BR
     FM110300 36004KT 4SM BR OVC008
     FM110800 VRB03KT 3SM BR OVC004
      TEMPO 1110/1113 1SM BR
     FM111500 19008KT P6SM OVC012
     FM111800 19015G22KT P6SM OVC018=

USA.gov is the U.S. government's official web portal to all federal, state and local government web resources and services.